LTB5 (KAYSERİ/SOĞANLI) TANITMALI BÖLGE

  • SEKTÖREL METEOROLOJİK DEĞERLENDİRME

  • SOĞANLI UÇULMAZ

Meteorolojik şartların belirlenen saat aralığında uçuş için uygun olmadığı değerlendirilmiştir.

  • GÜNCELLEME TARİHİ ve SAATİ :

  • 30.09.2022 - 05:36

  • GEÇERLİ TARİH ve SAATLER :

  • 30.09.2022 - 05:40 - 15:30

Büyük Harita İçin Tıklayınız

Sıcaklık
Basınç
Gün Doğum Saati
Gün Batım Saati
Bu bölümde yer alan bildirim meteorolojik veriler doğrultusunda ilgili gün ve zaman aralığında planlanan uçuşlara dair bağlayıcı niteliktedir. Kırmızı ve Sarı bayrak durumlarında kalkış uygunluğu verilmeyecektir. Yeşil bayrak durumunda nihai uçma kararı pilot ve işletme sorumluluğundadır
Kırmızı ve/veya sarı bayrağın ilan edildiği durumlarda yalnızca öğretmen pilot ile beraber yapılacak eğitim uçuşları (çift kumanda) için SHGM yetkilileri ile irtibata geçilerek eğitim uçuşları gerçekleştirilebilecektir.

METAR

LTAZ 300320Z 13010KT CAVOK 14/08 Q1021 RMK RWY29 19005KT

TAFF

TAF LTAZ 301040Z 3012/0112 31008KT 9999 SCT040 BECMG 3016/3019 CAVOK BECMG 0106/0109 FEW040

METAR - TAF bilgileri Aviation Weather Center'dan alınmaktadır.

AIRGRAM

Göreme Airgramı, Meteoroloji Genel Müdürlüğü'nden alınmaktadır.

Meteorolojik veriler sitede bilgilendirme amacıyla yer almaktadır.